Time;durP1;ratioP1;P1;durP2;ratioP2;P2;SDS_P1;SDS_P2;PMS_P1;PMS_P2;Temp;Humidity;BMP_temperature;BMP_pressure;BME280_temperature;BME280_humidity;BME280_pressure;Samples;Min_cycle;Max_cycle;Signal;HPM_P1;HPM_P2
2023/08/31 00:01:59;;;;;;;6.63;4.70;;;;;;;;;;5030405;28;20033;-80
2023/08/31 00:04:24;;;;;;;9.43;4.90;;;;;;;;;;5013332;28;20024;-81
2023/08/31 00:06:50;;;;;;;5.88;4.93;;;;;;;;;;5029837;28;20022;-81
2023/08/31 00:09:16;;;;;;;7.82;5.38;;;;;;;;;;5012212;28;20120;-81
2023/08/31 00:11:41;;;;;;;4.93;4.20;;;;;;;;;;5008612;28;20113;-81
2023/08/31 00:14:07;;;;;;;7.20;4.55;;;;;;;;;;5028164;28;20362;-82
2023/08/31 00:16:33;;;;;;;10.35;4.80;;;;;;;;;;5029435;28;20025;-81
2023/08/31 00:18:59;;;;;;;8.32;5.05;;;;;;;;;;5029536;28;20081;-81
2023/08/31 00:21:25;;;;;;;5.45;4.82;;;;;;;;;;5008105;28;20450;-81
2023/08/31 00:23:50;;;;;;;5.80;4.13;;;;;;;;;;5025473;28;20045;-80
2023/08/31 00:26:16;;;;;;;6.53;4.65;;;;;;;;;;5011418;28;20025;-81
2023/08/31 00:28:42;;;;;;;5.43;4.32;;;;;;;;;;5012016;28;20050;-82
2023/08/31 00:31:08;;;;;;;5.10;4.18;;;;;;;;;;5030622;28;20480;-82
2023/08/31 00:33:34;;;;;;;4.53;3.90;;;;;;;;;;5033571;28;20025;-81
2023/08/31 00:36:03;;;;;;;6.07;4.20;;;;;;;;;;5015179;28;20148;-81
2023/08/31 00:38:29;;;;;;;4.80;4.30;;;;;;;;;;5012169;28;20029;-81
2023/08/31 00:40:55;;;;;;;6.35;4.82;;;;;;;;;;5020702;28;20027;-81
2023/08/31 00:43:21;;;;;;;5.22;4.65;;;;;;;;;;5015465;28;20408;-81
2023/08/31 00:45:48;;;;;;;4.82;4.32;;;;;;;;;;5015669;28;20033;-82
2023/08/31 00:48:16;;;;;;;4.95;4.50;;;;;;;;;;5031045;28;20087;-81
2023/08/31 00:50:43;;;;;;;6.88;4.97;;;;;;;;;;5015792;28;20377;-82
2023/08/31 00:53:09;;;;;;;5.90;4.95;;;;;;;;;;5015271;28;20499;-81
2023/08/31 00:55:34;;;;;;;5.63;4.55;;;;;;;;;;5033369;28;20104;-81
2023/08/31 00:58:00;;;;;;;7.55;4.70;;;;;;;;;;5032128;28;20060;-81
2023/08/31 01:00:51;;;;;;;5.50;4.82;;;;;;;;;;5011991;28;20140;-81
2023/08/31 01:03:29;;;;;;;8.93;5.03;;;;;;;;;;5028372;28;20442;-81
2023/08/31 01:06:36;;;;;;;6.22;4.90;;;;;;;;;;4999176;28;20021;-81
2023/08/31 01:09:47;;;;;;;6.55;5.05;;;;;;;;;;5024494;28;20047;-81
2023/08/31 01:12:30;;;;;;;6.10;5.55;;;;;;;;;;5005638;28;20043;-81
2023/08/31 01:15:10;;;;;;;5.72;4.45;;;;;;;;;;5012952;28;20470;-82
2023/08/31 01:17:47;;;;;;;4.45;4.05;;;;;;;;;;5029537;28;20418;-83
2023/08/31 01:20:19;;;;;;;6.10;4.47;;;;;;;;;;5032298;28;20504;-81
2023/08/31 01:23:04;;;;;;;7.00;5.07;;;;;;;;;;5032896;28;20048;-81
2023/08/31 01:25:32;;;;;;;6.72;4.65;;;;;;;;;;5014475;28;20087;-81
2023/08/31 01:27:59;;;;;;;7.10;5.00;;;;;;;;;;5017272;28;20520;-82
2023/08/31 01:30:24;;;;;;;6.03;4.30;;;;;;;;;;5046158;28;20099;-82
2023/08/31 01:32:50;;;;;;;7.88;4.63;;;;;;;;;;5024882;28;20107;-83
2023/08/31 01:35:17;;;;;;;5.78;4.70;;;;;;;;;;5021104;28;20060;-81
2023/08/31 01:37:55;;;;;;;5.88;4.95;;;;;;;;;;5032677;28;20022;-82
2023/08/31 01:40:27;;;;;;;5.90;4.80;;;;;;;;;;5028558;28;20473;-81
2023/08/31 01:42:55;;;;;;;9.02;5.38;;;;;;;;;;5013116;28;20362;-81
2023/08/31 01:45:23;;;;;;;6.03;4.90;;;;;;;;;;5014677;28;20033;-82
2023/08/31 01:47:49;;;;;;;9.48;5.03;;;;;;;;;;5032284;28;20017;-82
2023/08/31 01:50:15;;;;;;;6.63;4.25;;;;;;;;;;5014652;28;20021;-81
2023/08/31 01:52:40;;;;;;;6.90;5.03;;;;;;;;;;5031572;28;20023;-81
2023/08/31 01:55:06;;;;;;;5.53;4.03;;;;;;;;;;5013844;28;20021;-81
2023/08/31 01:57:33;;;;;;;7.15;5.03;;;;;;;;;;5014517;28;20033;-81
2023/08/31 01:59:59;;;;;;;5.75;4.78;;;;;;;;;;5033339;28;20021;-81
2023/08/31 02:02:25;;;;;;;7.80;4.80;;;;;;;;;;5029040;28;20056;-80
2023/08/31 02:04:51;;;;;;;6.20;4.53;;;;;;;;;;5032295;28;20036;-80
2023/08/31 02:07:17;;;;;;;6.60;4.82;;;;;;;;;;5011147;28;20025;-82
2023/08/31 02:09:44;;;;;;;7.00;4.78;;;;;;;;;;5010775;28;20092;-80
2023/08/31 02:12:10;;;;;;;7.05;4.65;;;;;;;;;;5013158;28;20526;-81
2023/08/31 02:14:36;;;;;;;4.43;4.03;;;;;;;;;;5031858;28;20100;-81
2023/08/31 02:17:02;;;;;;;6.55;4.70;;;;;;;;;;5040974;28;20035;-81
2023/08/31 02:19:27;;;;;;;6.25;4.57;;;;;;;;;;5020397;28;20064;-80
2023/08/31 02:21:53;;;;;;;6.38;5.28;;;;;;;;;;5031202;28;20487;-80
2023/08/31 02:24:18;;;;;;;8.65;4.75;;;;;;;;;;5030733;28;20044;-80
2023/08/31 02:26:44;;;;;;;6.47;4.72;;;;;;;;;;5013723;28;20025;-80
2023/08/31 02:29:09;;;;;;;6.75;5.18;;;;;;;;;;5029725;28;20084;-81
2023/08/31 02:31:35;;;;;;;7.63;4.88;;;;;;;;;;5030186;28;20401;-81
2023/08/31 02:34:00;;;;;;;4.93;4.53;;;;;;;;;;5013075;28;20079;-82
2023/08/31 02:36:26;;;;;;;6.63;4.72;;;;;;;;;;4993711;28;20048;-81
2023/08/31 02:38:53;;;;;;;5.63;4.30;;;;;;;;;;5031456;28;20130;-81
2023/08/31 02:41:18;;;;;;;8.80;5.22;;;;;;;;;;5032228;28;20041;-82
2023/08/31 02:43:44;;;;;;;6.35;4.20;;;;;;;;;;5039530;28;20033;-81
2023/08/31 02:46:10;;;;;;;13.13;5.13;;;;;;;;;;4997494;28;20037;-81
2023/08/31 02:48:35;;;;;;;5.70;4.07;;;;;;;;;;5013858;28;20025;-80
2023/08/31 02:51:01;;;;;;;5.75;4.47;;;;;;;;;;5031518;28;20466;-82
2023/08/31 02:53:30;;;;;;;6.00;4.80;;;;;;;;;;5033093;28;20125;-82
2023/08/31 02:55:56;;;;;;;10.35;5.00;;;;;;;;;;5013446;28;20044;-80
2023/08/31 02:58:22;;;;;;;5.28;4.68;;;;;;;;;;5013355;28;20033;-80
2023/08/31 03:00:48;;;;;;;8.05;4.57;;;;;;;;;;5009871;28;20033;-81
2023/08/31 03:03:17;;;;;;;4.78;4.28;;;;;;;;;;5009569;28;20029;-81
2023/08/31 03:05:44;;;;;;;7.85;4.13;;;;;;;;;;5048959;28;20396;-81
2023/08/31 03:08:10;;;;;;;5.72;4.70;;;;;;;;;;5021178;28;20133;-81
2023/08/31 03:10:36;;;;;;;11.63;5.10;;;;;;;;;;5003478;28;20088;-82
2023/08/31 03:13:02;;;;;;;5.85;4.47;;;;;;;;;;5010516;28;20049;-82
2023/08/31 03:15:27;;;;;;;5.07;4.20;;;;;;;;;;5009755;28;20018;-82
2023/08/31 03:17:54;;;;;;;4.60;3.38;;;;;;;;;;5012801;28;20065;-81
2023/08/31 03:20:20;;;;;;;7.80;5.20;;;;;;;;;;5034614;28;20457;-82
2023/08/31 03:22:45;;;;;;;4.68;3.85;;;;;;;;;;5034709;28;20112;-81
2023/08/31 03:25:11;;;;;;;5.50;4.07;;;;;;;;;;5029730;28;20084;-81
2023/08/31 03:27:37;;;;;;;4.60;3.58;;;;;;;;;;5012132;28;20448;-81
2023/08/31 03:30:03;;;;;;;5.65;4.18;;;;;;;;;;5018264;28;20049;-81
2023/08/31 03:32:29;;;;;;;5.80;3.55;;;;;;;;;;5013469;28;20022;-81
2023/08/31 03:34:55;;;;;;;5.15;4.25;;;;;;;;;;5012780;28;20091;-81
2023/08/31 03:37:21;;;;;;;7.13;4.30;;;;;;;;;;5030819;28;20420;-81
2023/08/31 03:39:50;;;;;;;14.13;4.70;;;;;;;;;;5013299;28;20059;-81
2023/08/31 03:42:16;;;;;;;6.00;3.65;;;;;;;;;;5013065;28;20025;-81
2023/08/31 03:44:41;;;;;;;5.25;4.22;;;;;;;;;;5013149;28;20078;-80
2023/08/31 03:47:07;;;;;;;6.30;4.28;;;;;;;;;;5013084;28;20029;-81
2023/08/31 03:49:34;;;;;;;4.57;3.80;;;;;;;;;;5012569;28;20431;-81
2023/08/31 03:52:00;;;;;;;5.18;4.25;;;;;;;;;;5030672;28;20477;-81
2023/08/31 03:54:26;;;;;;;7.05;4.32;;;;;;;;;;5030183;28;20361;-81
2023/08/31 03:56:51;;;;;;;6.07;4.18;;;;;;;;;;5030437;28;20041;-81
2023/08/31 03:59:17;;;;;;;4.95;3.90;;;;;;;;;;5012951;28;20526;-81
2023/08/31 04:01:43;;;;;;;7.40;6.00;;;;;;;;;;5012824;28;20025;-81
2023/08/31 04:04:08;;;;;;;5.70;4.18;;;;;;;;;;5011890;28;21381;-81
2023/08/31 04:06:34;;;;;;;5.45;4.22;;;;;;;;;;5032598;28;20393;-80
2023/08/31 04:08:59;;;;;;;7.65;5.93;;;;;;;;;;5034791;28;20072;-82
2023/08/31 04:11:26;;;;;;;10.07;5.03;;;;;;;;;;5013474;28;20108;-82
2023/08/31 04:13:51;;;;;;;5.30;4.07;;;;;;;;;;5012924;28;20112;-81
2023/08/31 04:16:17;;;;;;;4.80;4.30;;;;;;;;;;5035272;28;20061;-82
2023/08/31 04:18:42;;;;;;;7.70;4.07;;;;;;;;;;5017035;28;20116;-83
2023/08/31 04:21:08;;;;;;;4.80;4.05;;;;;;;;;;5034517;28;20452;-80
2023/08/31 04:23:35;;;;;;;4.88;3.85;;;;;;;;;;5034162;28;20042;-83
2023/08/31 04:26:13;;;;;;;4.93;4.30;;;;;;;;;;5034869;28;20029;-78
2023/08/31 04:28:41;;;;;;;4.80;3.40;;;;;;;;;;5021539;28;20052;-82
2023/08/31 04:31:09;;;;;;;4.80;3.60;;;;;;;;;;5010926;28;20030;-81
2023/08/31 04:33:36;;;;;;;7.43;3.45;;;;;;;;;;5033839;28;20079;-83
2023/08/31 04:36:03;;;;;;;6.15;4.22;;;;;;;;;;5016149;28;20029;-82
2023/08/31 04:38:29;;;;;;;4.40;3.90;;;;;;;;;;5034376;28;20112;-81
2023/08/31 04:40:57;;;;;;;5.85;3.75;;;;;;;;;;5016353;28;20057;-83
2023/08/31 04:43:23;;;;;;;5.15;4.65;;;;;;;;;;5016205;28;20109;-82
2023/08/31 04:45:48;;;;;;;6.57;4.35;;;;;;;;;;5013112;28;20124;-84
2023/08/31 04:48:15;;;;;;;6.13;4.03;;;;;;;;;;5032350;28;20060;-83
2023/08/31 04:50:41;;;;;;;4.57;3.78;;;;;;;;;;5020969;28;20025;-82
2023/08/31 04:53:06;;;;;;;5.28;3.92;;;;;;;;;;5027908;28;20028;-83
2023/08/31 04:55:32;;;;;;;6.03;4.30;;;;;;;;;;5032501;28;20029;-81
2023/08/31 04:57:57;;;;;;;9.77;4.63;;;;;;;;;;5016268;28;20175;-82
2023/08/31 05:00:23;;;;;;;4.10;3.65;;;;;;;;;;5025248;28;20074;-77
2023/08/31 05:02:50;;;;;;;6.18;4.03;;;;;;;;;;5024471;28;20022;-84
2023/08/31 05:05:15;;;;;;;6.25;4.32;;;;;;;;;;5013136;28;20173;-84
2023/08/31 05:07:41;;;;;;;4.70;4.05;;;;;;;;;;5016133;28;20507;-84
2023/08/31 05:10:07;;;;;;;6.53;5.20;;;;;;;;;;5034005;28;20025;-82
2023/08/31 05:12:33;;;;;;;5.25;4.15;;;;;;;;;;5034370;28;20029;-83
2023/08/31 05:14:58;;;;;;;6.07;3.65;;;;;;;;;;5034175;28;20159;-82
2023/08/31 05:17:23;;;;;;;4.55;3.80;;;;;;;;;;5016347;28;20188;-82
2023/08/31 05:19:50;;;;;;;3.47;2.83;;;;;;;;;;5014939;28;20081;-82
2023/08/31 05:22:15;;;;;;;4.15;3.25;;;;;;;;;;5014129;28;20021;-84
2023/08/31 05:24:42;;;;;;;3.30;2.50;;;;;;;;;;5020175;28;20055;-81
2023/08/31 05:27:07;;;;;;;4.03;2.85;;;;;;;;;;5034343;28;20025;-81
2023/08/31 05:29:33;;;;;;;2.90;2.30;;;;;;;;;;5032285;28;20104;-81
2023/08/31 05:31:58;;;;;;;3.30;2.50;;;;;;;;;;5034632;28;20060;-82
2023/08/31 05:34:25;;;;;;;4.25;2.72;;;;;;;;;;5014876;28;20036;-79
2023/08/31 05:36:50;;;;;;;3.58;2.63;;;;;;;;;;5015021;28;20083;-80
2023/08/31 05:39:16;;;;;;;6.65;2.50;;;;;;;;;;5010892;28;20033;-79
2023/08/31 05:41:43;;;;;;;4.25;2.50;;;;;;;;;;5028798;28;20060;-77
2023/08/31 05:44:10;;;;;;;6.45;2.88;;;;;;;;;;5008799;28;20033;-78
2023/08/31 05:46:36;;;;;;;6.53;3.95;;;;;;;;;;5033079;28;20032;-80
2023/08/31 05:49:02;;;;;;;6.28;3.95;;;;;;;;;;4988985;28;20045;-79
2023/08/31 05:51:27;;;;;;;3.97;2.88;;;;;;;;;;5032800;28;20025;-79
2023/08/31 05:53:53;;;;;;;5.75;3.80;;;;;;;;;;5028847;28;20033;-80
2023/08/31 05:56:19;;;;;;;5.82;4.93;;;;;;;;;;5007619;28;20033;-80
2023/08/31 05:58:45;;;;;;;5.40;4.25;;;;;;;;;;5025980;28;20432;-79
2023/08/31 06:01:11;;;;;;;3.58;2.90;;;;;;;;;;5010616;28;20021;-80
2023/08/31 06:03:52;;;;;;;5.80;4.20;;;;;;;;;;5010366;28;20066;-79
2023/08/31 06:06:18;;;;;;;8.10;3.00;;;;;;;;;;5016169;28;20033;-79
2023/08/31 06:08:44;;;;;;;3.33;3.03;;;;;;;;;;5030588;28;20110;-76
2023/08/31 06:11:10;;;;;;;2.72;2.40;;;;;;;;;;5029417;28;20500;-76
2023/08/31 06:13:35;;;;;;;4.30;3.10;;;;;;;;;;5007650;28;20116;-79
2023/08/31 06:16:01;;;;;;;5.60;4.63;;;;;;;;;;5038361;28;20584;-78
2023/08/31 06:18:26;;;;;;;4.50;3.17;;;;;;;;;;5034821;28;20465;-75
2023/08/31 06:20:52;;;;;;;4.30;3.00;;;;;;;;;;5035080;28;20369;-80
2023/08/31 06:23:17;;;;;;;3.33;2.92;;;;;;;;;;5027764;28;20044;-77
2023/08/31 06:25:45;;;;;;;4.03;2.60;;;;;;;;;;5026605;28;20030;-79
2023/08/31 06:28:12;;;;;;;6.10;3.22;;;;;;;;;;5010664;28;20108;-81
2023/08/31 06:30:38;;;;;;;3.92;2.88;;;;;;;;;;5009260;28;20493;-80
2023/08/31 06:33:04;;;;;;;5.43;2.78;;;;;;;;;;5007692;28;20045;-82
2023/08/31 06:35:29;;;;;;;4.03;3.70;;;;;;;;;;5012867;28;20021;-83
2023/08/31 06:37:55;;;;;;;3.40;3.10;;;;;;;;;;5031286;28;20094;-81
2023/08/31 06:40:21;;;;;;;6.43;3.70;;;;;;;;;;5013103;28;20030;-84
2023/08/31 06:42:47;;;;;;;5.00;3.53;;;;;;;;;;5013498;28;20506;-79
2023/08/31 06:45:12;;;;;;;3.80;3.13;;;;;;;;;;5032874;28;20101;-81
2023/08/31 06:47:38;;;;;;;3.65;2.95;;;;;;;;;;5030401;28;20543;-81
2023/08/31 06:50:04;;;;;;;4.45;3.45;;;;;;;;;;5010137;28;20030;-83
2023/08/31 06:52:30;;;;;;;6.00;3.33;;;;;;;;;;5013020;28;20052;-80
2023/08/31 06:54:56;;;;;;;2.67;2.42;;;;;;;;;;5012331;28;20052;-80
2023/08/31 06:57:23;;;;;;;2.45;2.10;;;;;;;;;;5016292;28;20025;-80
2023/08/31 06:59:49;;;;;;;2.78;2.10;;;;;;;;;;5032990;28;20141;-78
2023/08/31 07:02:15;;;;;;;3.63;2.13;;;;;;;;;;5026433;28;20203;-80
2023/08/31 07:04:44;;;;;;;2.75;2.40;;;;;;;;;;5012199;28;20163;-80
2023/08/31 07:07:13;;;;;;;3.17;2.03;;;;;;;;;;5019097;28;20110;-80
2023/08/31 07:10:08;;;;;;;5.03;2.47;;;;;;;;;;5018005;28;20044;-83
2023/08/31 07:12:40;;;;;;;2.30;2.08;;;;;;;;;;5035618;28;20049;-81
2023/08/31 07:15:18;;;;;;;1.95;1.80;;;;;;;;;;5042443;28;20024;-81
2023/08/31 07:17:58;;;;;;;2.47;1.75;;;;;;;;;;5033832;28;20029;-82
2023/08/31 07:20:26;;;;;;;3.00;1.60;;;;;;;;;;5024154;28;20038;-79
2023/08/31 07:22:55;;;;;;;3.80;2.28;;;;;;;;;;5025915;28;20100;-79
2023/08/31 07:25:43;;;;;;;3.88;1.90;;;;;;;;;;5019447;28;20041;-80
2023/08/31 07:28:17;;;;;;;1.90;1.67;;;;;;;;;;5040949;28;20046;-80
2023/08/31 07:31:10;;;;;;;3.78;1.58;;;;;;;;;;5052875;28;20063;-80
2023/08/31 07:33:37;;;;;;;;;;;;;;;;;;5040529;28;20044;-81
2023/08/31 07:36:18;;;;;;;2.08;1.60;;;;;;;;;;5027592;28;19909;-84
2023/08/31 07:45:56;;;;;;;2.45;1.50;;;;;;;;;;4876197;29;20092;-81
2023/08/31 07:49:21;;;;;;;1.65;1.45;;;;;;;;;;4824160;29;20034;-83
2023/08/31 07:52:22;;;;;;;4.05;1.58;;;;;;;;;;4821600;29;20033;-82
2023/08/31 07:54:49;;;;;;;2.47;1.42;;;;;;;;;;4917733;29;20062;-81
2023/08/31 08:01:08;;;;;;;1.88;1.77;;;;;;;;;;4894432;29;20024;-80
2023/08/31 08:04:23;;;;;;;2.08;1.40;;;;;;;;;;4909694;29;20052;-77
2023/08/31 08:11:04;;;;;;;1.35;1.13;;;;;;;;;;4949461;28;20039;-82
2023/08/31 08:13:57;;;;;;;2.45;1.55;;;;;;;;;;4950591;29;20039;-81
2023/08/31 08:17:07;;;;;;;;;;;;;;;;;;;;;
2023/08/31 08:22:28;;;;;;;5.03;1.92;;;;;;;;;;4888560;29;20036;-80
2023/08/31 08:25:26;;;;;;;3.15;1.52;;;;;;;;;;4924440;29;20055;-80
2023/08/31 08:28:34;;;;;;;;;;;;;;;;;;;;;
2023/08/31 08:31:27;;;;;;;1.85;1.20;;;;;;;;;;4882352;29;20787;-82
2023/08/31 08:34:28;;;;;;;4.47;1.50;;;;;;;;;;4922064;29;20078;-80
2023/08/31 08:36:58;;;;;;;3.58;1.40;;;;;;;;;;4968353;28;20102;-80
2023/08/31 08:39:39;;;;;;;2.53;1.60;;;;;;;;;;4995447;28;20477;-80
2023/08/31 08:42:15;;;;;;;5.22;1.70;;;;;;;;;;5023091;28;20028;-79
2023/08/31 08:44:59;;;;;;;2.35;1.40;;;;;;;;;;5019560;28;20037;-81
2023/08/31 08:47:45;;;;;;;2.70;1.40;;;;;;;;;;5021429;28;20053;-79
2023/08/31 08:50:52;;;;;;;2.03;1.45;;;;;;;;;;5037798;28;20056;-79
2023/08/31 08:56:56;;;;;;;3.40;1.70;;;;;;;;;;5034114;28;20033;-78
2023/08/31 08:59:23;;;;;;;2.42;1.30;;;;;;;;;;5024301;28;20035;-80
2023/08/31 09:02:44;;;;;;;;;;;;;;;;;;;;;
2023/08/31 09:06:09;;;;;;;5.75;2.05;;;;;;;;;;4965672;28;20123;-80
2023/08/31 09:09:16;;;;;;;1.60;1.50;;;;;;;;;;4981718;28;20065;-81
2023/08/31 09:18:43;;;;;;;3.70;1.88;;;;;;;;;;4934676;29;20067;-83
2023/08/31 09:21:27;;;;;;;;;;;;;;;;;;;;;
2023/08/31 09:24:03;;;;;;;6.03;1.58;;;;;;;;;;4937457;29;20127;-81
2023/08/31 09:27:10;;;;;;;;;;;;;;;;;;;;;
2023/08/31 09:30:10;;;;;;;1.80;1.38;;;;;;;;;;4894378;29;20041;-82
2023/08/31 09:36:19;;;;;;;2.03;1.35;;;;;;;;;;4915177;29;20066;-78
2023/08/31 09:39:20;;;;;;;3.28;1.58;;;;;;;;;;4922934;29;20032;-79
2023/08/31 09:45:03;;;;;;;4.13;1.88;;;;;;;;;;4965909;28;20035;-84
2023/08/31 09:47:53;;;;;;;3.03;1.77;;;;;;;;;;5019702;28;20026;-81
2023/08/31 09:50:39;;;;;;;1.75;1.17;;;;;;;;;;4988073;28;20466;-79
2023/08/31 09:53:22;;;;;;;;;;;;;;;;;;;;;
2023/08/31 09:55:52;;;;;;;1.80;1.40;;;;;;;;;;5022657;28;20159;-78
2023/08/31 09:59:02;;;;;;;1.77;1.20;;;;;;;;;;5028489;28;20030;-77
2023/08/31 10:06:16;;;;;;;3.70;1.42;;;;;;;;;;5013841;28;20052;-80
2023/08/31 10:19:12;;;;;;;3.45;1.65;;;;;;;;;;4961832;28;20538;-83
2023/08/31 10:21:47;;;;;;;4.63;1.20;;;;;;;;;;5011857;28;20030;-80
2023/08/31 10:27:50;;;;;;;3.17;1.83;;;;;;;;;;5029694;28;20083;-78
2023/08/31 10:37:59;;;;;;;3.72;2.25;;;;;;;;;;4973035;28;20037;-79
2023/08/31 10:40:54;;;;;;;4.05;1.50;;;;;;;;;;4892913;29;20041;-78
2023/08/31 10:43:50;;;;;;;6.50;3.05;;;;;;;;;;4918367;29;20042;-79
2023/08/31 10:49:59;;;;;;;;;;;;;;;;;;;;;
2023/08/31 10:52:54;;;;;;;1.95;1.13;;;;;;;;;;4811960;29;20117;-77
2023/08/31 10:56:13;;;;;;;2.85;1.40;;;;;;;;;;4838843;29;20102;-78
2023/08/31 10:59:08;;;;;;;2.42;1.30;;;;;;;;;;4831374;29;20037;-80
2023/08/31 11:09:13;;;;;;;;;;;;;;;;;;;;;
2023/08/31 11:12:06;;;;;;;1.45;1.33;;;;;;;;;;4944484;29;20036;-78
2023/08/31 11:15:43;;;;;;;3.20;1.45;;;;;;;;;;5000988;28;20487;-78
2023/08/31 11:18:25;;;;;;;1.25;0.75;;;;;;;;;;4960915;28;20563;-78
2023/08/31 11:32:29;;;;;;;3.30;1.33;;;;;;;;;;4889415;29;20037;-80
2023/08/31 11:34:55;;;;;;;2.28;1.20;;;;;;;;;;4854015;29;20036;-75
2023/08/31 11:41:09;;;;;;;3.20;1.30;;;;;;;;;;4889773;29;20135;-79
2023/08/31 11:50:55;;;;;;;2.85;1.20;;;;;;;;;;4893865;29;20132;-80
2023/08/31 11:54:02;;;;;;;;;;;;;;;;;;;;;
2023/08/31 11:57:29;;;;;;;;;;;;;;;;;;;;;
2023/08/31 12:03:31;;;;;;;4.18;1.40;;;;;;;;;;4890995;29;20068;-79
2023/08/31 12:06:30;;;;;;;2.83;1.20;;;;;;;;;;4897678;29;20057;-78
2023/08/31 12:09:25;;;;;;;2.90;1.58;;;;;;;;;;4905167;29;20040;-79
2023/08/31 12:12:10;;;;;;;3.53;2.20;;;;;;;;;;4903406;29;20043;-81
2023/08/31 12:15:23;;;;;;;4.15;1.63;;;;;;;;;;4890880;29;20041;-79
2023/08/31 12:18:16;;;;;;;4.65;1.77;;;;;;;;;;4990565;28;20126;-80
2023/08/31 12:20:59;;;;;;;2.83;1.48;;;;;;;;;;5009209;28;20723;-79
2023/08/31 12:23:49;;;;;;;4.68;1.50;;;;;;;;;;5031639;28;20029;-79
2023/08/31 12:26:35;;;;;;;5.53;1.65;;;;;;;;;;5018431;28;20037;-79
2023/08/31 12:29:20;;;;;;;4.13;1.15;;;;;;;;;;5017715;28;20050;-79
2023/08/31 12:32:01;;;;;;;4.00;1.55;;;;;;;;;;4993933;28;20026;-80
2023/08/31 12:35:30;;;;;;;2.22;1.00;;;;;;;;;;5028682;28;20042;-82
2023/08/31 12:38:27;;;;;;;1.15;1.00;;;;;;;;;;4928613;28;20084;-77
2023/08/31 12:45:05;;;;;;;1.92;1.20;;;;;;;;;;5029644;28;20064;-83
2023/08/31 12:51:14;;;;;;;2.63;1.08;;;;;;;;;;4915775;29;19954;-85
2023/08/31 12:53:48;;;;;;;3.35;1.00;;;;;;;;;;4926340;29;20033;-82
2023/08/31 12:56:22;;;;;;;1.58;0.95;;;;;;;;;;4914094;29;20547;-81
2023/08/31 12:58:50;;;;;;;2.33;1.15;;;;;;;;;;4931385;29;20040;-81
2023/08/31 13:01:23;;;;;;;5.85;1.73;;;;;;;;;;4932071;29;20103;-80
2023/08/31 13:04:09;;;;;;;2.55;1.30;;;;;;;;;;4937119;29;20032;-80
2023/08/31 13:07:10;;;;;;;2.50;1.17;;;;;;;;;;4935477;29;20106;-86
2023/08/31 13:12:49;;;;;;;5.43;1.30;;;;;;;;;;5018601;28;20044;-80
2023/08/31 13:15:18;;;;;;;2.92;1.30;;;;;;;;;;5016814;28;20078;-80
2023/08/31 13:17:45;;;;;;;2.30;1.48;;;;;;;;;;5004326;28;20034;-79
2023/08/31 13:20:41;;;;;;;2.15;0.82;;;;;;;;;;5029945;28;20026;-83
2023/08/31 13:23:22;;;;;;;1.42;1.13;;;;;;;;;;5002979;28;20105;-86
2023/08/31 13:26:48;;;;;;;;;;;;;;;;;;;;;
2023/08/31 13:33:10;;;;;;;3.33;0.90;;;;;;;;;;5040117;28;20108;-79
2023/08/31 13:36:03;;;;;;;1.60;1.10;;;;;;;;;;5030295;28;20469;-80
2023/08/31 13:39:03;;;;;;;3.92;1.30;;;;;;;;;;5043287;28;20048;-81
2023/08/31 13:41:52;;;;;;;;;;;;;;;;;;;;;
2023/08/31 13:44:53;;;;;;;2.10;1.10;;;;;;;;;;5038780;28;20061;-82
2023/08/31 13:47:38;;;;;;;3.65;1.30;;;;;;;;;;5021963;28;20093;-85
2023/08/31 13:50:24;;;;;;;1.90;1.17;;;;;;;;;;5036892;28;20052;-80
2023/08/31 13:53:28;;;;;;;3.35;1.05;;;;;;;;;;5042963;28;20095;-83
2023/08/31 13:56:14;;;;;;;;;;;;;;;;;;;;;
2023/08/31 13:59:13;;;;;;;1.98;1.13;;;;;;;;;;5052970;28;20033;-84
2023/08/31 14:02:24;;;;;;;;;;;;;;;;;;;;;
2023/08/31 14:05:09;;;;;;;;;;;;;;;;;;;;;
2023/08/31 14:07:46;;;;;;;3.42;1.10;;;;;;;;;;4979892;28;20447;-80
2023/08/31 14:10:12;;;;;;;1.92;1.23;;;;;;;;;;4982781;28;20103;-82
2023/08/31 14:12:41;;;;;;;2.17;1.17;;;;;;;;;;4971094;28;20031;-83
2023/08/31 14:15:14;;;;;;;2.38;1.30;;;;;;;;;;4977464;28;20548;-80
2023/08/31 14:17:49;;;;;;;2.72;1.10;;;;;;;;;;4996452;28;20039;-83
2023/08/31 14:20:41;;;;;;;1.75;1.20;;;;;;;;;;4972801;28;20038;-84
2023/08/31 14:23:33;;;;;;;1.63;1.23;;;;;;;;;;4965323;28;20071;-82
2023/08/31 14:26:38;;;;;;;1.52;0.90;;;;;;;;;;4976259;28;20129;-82
2023/08/31 14:29:34;;;;;;;1.08;0.93;;;;;;;;;;4971365;28;20109;-83
2023/08/31 14:32:52;;;;;;;1.63;0.90;;;;;;;;;;4969268;28;20151;-83
2023/08/31 14:35:01;;;;;;;1.60;1.08;;;;;;;;;;4998617;28;20033;-81
2023/08/31 14:38:05;;;;;;;5.03;1.30;;;;;;;;;;5025845;28;20092;-83
2023/08/31 14:40:35;;;;;;;3.08;1.20;;;;;;;;;;4945020;29;20071;-80
2023/08/31 14:43:19;;;;;;;;;;;;;;;;;;;;;
2023/08/31 14:46:08;;;;;;;1.98;1.10;;;;;;;;;;5025164;28;20128;-83
2023/08/31 14:48:38;;;;;;;3.53;1.23;;;;;;;;;;5031255;28;20037;-83
2023/08/31 14:51:18;;;;;;;4.97;1.45;;;;;;;;;;5035024;28;20029;-86
2023/08/31 14:53:56;;;;;;;3.15;1.15;;;;;;;;;;5031446;28;20029;-82
2023/08/31 14:56:28;;;;;;;3.13;1.38;;;;;;;;;;5030391;28;20034;-83
2023/08/31 14:58:57;;;;;;;3.97;1.50;;;;;;;;;;5029444;28;20025;-82
2023/08/31 15:07:51;;;;;;;4.82;1.27;;;;;;;;;;5032628;28;20056;-83
2023/08/31 15:10:27;;;;;;;2.80;1.40;;;;;;;;;;5024860;28;20021;-82
2023/08/31 15:13:25;;;;;;;7.53;1.35;;;;;;;;;;5016823;28;20025;-80
2023/08/31 15:16:43;;;;;;;2.90;1.17;;;;;;;;;;4990495;28;20045;-78
2023/08/31 15:19:32;;;;;;;3.40;1.30;;;;;;;;;;5000860;28;20057;-78
2023/08/31 15:22:36;;;;;;;4.65;1.67;;;;;;;;;;4983257;28;20718;-80
2023/08/31 15:25:08;;;;;;;2.83;1.20;;;;;;;;;;4971267;28;20042;-80
2023/08/31 15:27:41;;;;;;;3.35;1.40;;;;;;;;;;5006192;28;20049;-81
2023/08/31 15:30:27;;;;;;;2.80;1.50;;;;;;;;;;4993792;28;20077;-79
2023/08/31 15:33:25;;;;;;;1.77;1.50;;;;;;;;;;5020151;28;20038;-80
2023/08/31 15:35:53;;;;;;;2.40;1.50;;;;;;;;;;4996861;28;20568;-81
2023/08/31 15:38:20;;;;;;;3.60;1.95;;;;;;;;;;5046099;28;20049;-82
2023/08/31 15:40:55;;;;;;;2.65;1.40;;;;;;;;;;5028725;28;20048;-79
2023/08/31 15:43:21;;;;;;;2.05;1.30;;;;;;;;;;5045007;28;20128;-79
2023/08/31 15:46:08;;;;;;;1.60;1.20;;;;;;;;;;5026963;28;20489;-79
2023/08/31 15:55:43;;;;;;;5.22;1.25;;;;;;;;;;4982857;28;20065;-79
2023/08/31 15:58:20;;;;;;;3.80;1.35;;;;;;;;;;4944723;29;20148;-78
2023/08/31 16:01:00;;;;;;;6.45;2.15;;;;;;;;;;5028355;28;20037;-78
2023/08/31 16:03:34;;;;;;;6.10;5.32;;;;;;;;;;5038228;28;20041;-78
2023/08/31 16:06:36;;;;;;;;;;;;;;;;;;;;;
2023/08/31 16:09:04;;;;;;;1.65;1.30;;;;;;;;;;5036001;28;20120;-78
2023/08/31 16:11:40;;;;;;;1.65;1.33;;;;;;;;;;5048633;28;20025;-79
2023/08/31 16:14:06;;;;;;;4.80;3.00;;;;;;;;;;5029950;28;20018;-80
2023/08/31 16:19:42;;;;;;;1.45;1.20;;;;;;;;;;5007429;28;20450;-80
2023/08/31 16:22:38;;;;;;;1.65;1.38;;;;;;;;;;5031590;28;20075;-79
2023/08/31 16:25:12;;;;;;;2.33;1.40;;;;;;;;;;4968192;29;20043;-79
2023/08/31 16:28:15;;;;;;;1.97;1.10;;;;;;;;;;4639397;28;11041760;-79
2023/08/31 16:34:11;;;;;;;3.47;1.67;;;;;;;;;;5006414;28;20068;-79
2023/08/31 16:37:03;;;;;;;1.60;1.25;;;;;;;;;;5050172;28;20029;-78
2023/08/31 16:39:39;;;;;;;3.28;1.63;;;;;;;;;;5029192;28;20029;-78
2023/08/31 16:42:17;;;;;;;2.28;1.60;;;;;;;;;;5031082;28;20029;-79
2023/08/31 16:45:26;;;;;;;2.63;1.50;;;;;;;;;;5047537;28;20055;-79
2023/08/31 16:47:56;;;;;;;2.80;1.52;;;;;;;;;;5023782;28;20029;-79
2023/08/31 16:50:52;;;;;;;;;;;;;;;;;;;;;
2023/08/31 16:53:23;;;;;;;3.58;1.60;;;;;;;;;;5043504;28;20069;-79
2023/08/31 16:55:55;;;;;;;2.67;1.63;;;;;;;;;;5014367;28;20021;-78
2023/08/31 16:58:29;;;;;;;3.55;1.77;;;;;;;;;;5047842;28;20022;-79
2023/08/31 17:01:19;;;;;;;2.20;1.33;;;;;;;;;;5030516;28;20100;-80
2023/08/31 17:04:09;;;;;;;5.07;1.52;;;;;;;;;;5029926;28;20049;-79
2023/08/31 17:06:51;;;;;;;2.95;1.70;;;;;;;;;;5025644;28;20040;-79
2023/08/31 17:09:23;;;;;;;9.30;1.60;;;;;;;;;;5048799;28;20022;-79
2023/08/31 17:11:49;;;;;;;2.08;1.67;;;;;;;;;;5048309;28;20076;-78
2023/08/31 17:14:22;;;;;;;2.80;1.30;;;;;;;;;;5047325;28;20053;-78
2023/08/31 17:17:02;;;;;;;2.35;1.45;;;;;;;;;;5031236;28;20029;-78
2023/08/31 17:19:39;;;;;;;3.67;1.58;;;;;;;;;;5048466;28;20079;-80
2023/08/31 17:22:17;;;;;;;2.15;1.38;;;;;;;;;;5014401;28;20041;-80
2023/08/31 17:24:46;;;;;;;3.65;1.50;;;;;;;;;;5047245;28;20017;-79
2023/08/31 17:27:15;;;;;;;3.70;1.65;;;;;;;;;;5047821;28;20026;-78
2023/08/31 17:29:49;;;;;;;3.40;1.77;;;;;;;;;;5047282;28;20053;-79
2023/08/31 17:32:17;;;;;;;4.03;2.13;;;;;;;;;;5013349;28;20033;-79
2023/08/31 17:35:03;;;;;;;3.35;2.00;;;;;;;;;;5046755;28;20026;-78
2023/08/31 17:37:37;;;;;;;5.40;2.50;;;;;;;;;;5029201;28;20022;-79
2023/08/31 17:40:12;;;;;;;1.70;1.52;;;;;;;;;;5029391;28;20029;-80
2023/08/31 17:42:43;;;;;;;2.25;1.70;;;;;;;;;;5046711;28;20090;-79
2023/08/31 17:45:42;;;;;;;4.45;2.38;;;;;;;;;;5046036;28;20037;-79
2023/08/31 17:48:08;;;;;;;4.68;1.88;;;;;;;;;;5014945;28;20394;-79
2023/08/31 17:50:41;;;;;;;4.93;2.78;;;;;;;;;;5046391;28;20029;-78
2023/08/31 17:53:37;;;;;;;;;;;;;;;;;;;;;
2023/08/31 17:56:32;;;;;;;5.07;1.50;;;;;;;;;;5046655;28;20085;-79
2023/08/31 17:59:04;;;;;;;1.90;1.40;;;;;;;;;;5045491;28;20056;-79
2023/08/31 18:01:30;;;;;;;4.85;2.05;;;;;;;;;;5046432;28;20044;-79
2023/08/31 18:04:00;;;;;;;3.05;1.40;;;;;;;;;;5046431;28;20120;-77
2023/08/31 18:06:41;;;;;;;3.15;1.60;;;;;;;;;;5046344;28;20155;-79
2023/08/31 18:09:14;;;;;;;2.43;1.37;;;;;;;;;;5045334;28;20051;-78